Main page
METAR-TAF:

METAR-TAF

Airports :

Whitegrass Airport

Tanna, Vanuatu

latitude: 19-27-18S, longitude: 169-13-26E, elevation: 6 m

Current weather observation

The report was made 2 hours and 55 minutes ago, at 15:00 UTC
Calm wind
Temperature 21°C
Humidity 73%
Pressure 1016 hPa
Visibility 10 km or more
Broken clouds at a height of 2000 ft

METAR: NVVW 211500Z 00000KT 9999 BKN020 21/16 Q1016

Time: 04:55 (17:55 UTC)

Forecast

The report was made 55 minutes ago, at 17:00 UTC
Forecast valid from 21 at 18 UTC to 22 at 18 UTC
Wind 10 kt from the Southeast
Visibility: 9000 m
Scattered clouds at a height of 2000 ft
Broken clouds at a height of 4000 ft
Scattered clouds at a height of 1200 ft
Broken clouds at a height of 1800 ft
rain showers,

TAF: NVVW 211700Z 2118/2218 13010KT 9999 SCT020 BKN040 INTER 2118/2122 9000 SHRA SCT012 BKN018

Weather observations and forecasts of more than 4000 airports (METAR and TAF reports).

The available stations are represented by yellow and red dots on the map.

Hover mouse over dot to see the name of the station.

Then click to see weather observations and forecasts.

To change the map : click on the green buttons with a black cross to zoom in, on the green button with a dash to zoom out, or on the green arrows for adjacent maps.


METAR-TAF: